Ponce, PR (00731)

6:21 PM AST on November 27, 2014 (GMT -0400)
City | Change Station
CLOSE
Current Station
Personal Weather Station
Location: Ponce, PR
Elevation: 36 ft
Nearby Weather Stations

Elev 36 ft 18.00 °N, 66.64 °W | Updated 4 seconds ago

Partly Cloudy
Partly Cloudy
80.8 °F
Feels Like 84 °F
N
3.8
Wind Variable Wind from SE
Gusts 8.3 mph

Today
High -- | Low -- °F
--% Chance of Precip.
Yesterday
High -- | Low -- °F
Precip. -- in
6:39 AM 5:48 PM
Waxing Crescent, 33% visible
Pressure 29.89 in
Visibility 10.0 miles
Clouds Few 3000 ft
Heat Index 84 °F
Dew Point 68 °F
Humidity 65%
Rainfall 0.00 in
Snow Depth Not available.
UV 0 out of 12
Pollen Not available.
Air Quality Not available.
Flu Activity Not available.
METAR TJPS 272150Z 15005KT 10SM FEW030 28/21 A2989

More Conditions Fewer Conditions

Pressure 29.89 in
Visibility 10.0 miles
Clouds Few 3000 ft
Heat Index 84 °F
Dew Point 68 °F
Humidity 65%
Rainfall 0.00 in
Snow Depth Not available.
UV 0 out of 12
Pollen Not available.
Air Quality Not available.
Flu Activity Not available.
METAR TJPS 272150Z 15005KT 10SM FEW030 28/21 A2989

More Conditions Fewer Conditions

10-Day Weather Forecast

Almanac

Astronomy

Nov. 27, 2014 Rise Set
Actual Time
Civil Twilight
Nautical Twilight
Astronomical Twilight
Moon
Length of Visible Light
Length of Day
Tomorrow will be .
, % of the Moon is Illuminated

Today's Extremes

State Highs State Lows

Community

WunderPhotos

Upload Photos

1,774,124 photos uploaded!

WunderBlogs® & News

Nearby

Air Quality

  Air Quality AQ Index Pollutant
Not available.

Snow Depth

Station Depth Elevation

Earthquake Activity

City Distance Mag. Time & Date
Minimum magnitude displayed is 2.5.

Coastal Water Temperatures

Place Temperature

Nearby Weather Stations